sensor_id;sensor_type;location;lat;lon;timestamp;P1;durP1;ratioP1;P2;durP2;ratioP2
36839;SDS011;24406;51.640;9.566;2023-11-19T00:10:35;2.22;;;2.10;;
36839;SDS011;24406;51.640;9.566;2023-11-19T00:15:37;2.20;;;2.10;;
36839;SDS011;24406;51.640;9.566;2023-11-19T00:20:39;3.08;;;2.70;;
36839;SDS011;24406;51.640;9.566;2023-11-19T00:25:45;3.45;;;3.03;;
36839;SDS011;24406;51.640;9.566;2023-11-19T00:31:02;4.90;;;3.35;;
36839;SDS011;24406;51.640;9.566;2023-11-19T00:36:13;2.92;;;2.72;;
36839;SDS011;24406;51.640;9.566;2023-11-19T00:41:16;2.45;;;2.08;;
36839;SDS011;24406;51.640;9.566;2023-11-19T00:46:26;3.30;;;2.30;;
36839;SDS011;24406;51.640;9.566;2023-11-19T00:51:50;2.83;;;2.42;;
36839;SDS011;24406;51.640;9.566;2023-11-19T00:56:53;2.60;;;2.40;;
36839;SDS011;24406;51.640;9.566;2023-11-19T01:01:55;2.22;;;2.10;;
36839;SDS011;24406;51.640;9.566;2023-11-19T01:06:57;2.17;;;1.98;;
36839;SDS011;24406;51.640;9.566;2023-11-19T01:12:01;2.30;;;2.10;;
36839;SDS011;24406;51.640;9.566;2023-11-19T01:17:11;2.58;;;1.70;;
36839;SDS011;24406;51.640;9.566;2023-11-19T01:29:16;5.20;;;2.10;;
36839;SDS011;24406;51.640;9.566;2023-11-19T01:35:34;3.47;;;2.40;;
36839;SDS011;24406;51.640;9.566;2023-11-19T01:41:00;3.97;;;2.92;;
36839;SDS011;24406;51.640;9.566;2023-11-19T01:51:45;3.53;;;3.33;;
36839;SDS011;24406;51.640;9.566;2023-11-19T01:56:47;3.10;;;2.80;;
36839;SDS011;24406;51.640;9.566;2023-11-19T02:01:50;3.45;;;2.97;;
36839;SDS011;24406;51.640;9.566;2023-11-19T02:06:52;3.05;;;2.85;;
36839;SDS011;24406;51.640;9.566;2023-11-19T02:11:55;3.25;;;2.95;;
36839;SDS011;24406;51.640;9.566;2023-11-19T02:16:59;2.97;;;2.45;;
36839;SDS011;24406;51.640;9.566;2023-11-19T02:22:00;2.63;;;2.42;;
36839;SDS011;24406;51.640;9.566;2023-11-19T02:27:02;3.20;;;2.90;;
36839;SDS011;24406;51.640;9.566;2023-11-19T02:32:11;3.15;;;2.95;;
36839;SDS011;24406;51.640;9.566;2023-11-19T02:37:13;4.90;;;3.17;;
36839;SDS011;24406;51.640;9.566;2023-11-19T02:42:16;4.25;;;3.95;;
36839;SDS011;24406;51.640;9.566;2023-11-19T02:52:36;3.38;;;3.10;;
36839;SDS011;24406;51.640;9.566;2023-11-19T02:57:38;3.22;;;3.03;;
36839;SDS011;24406;51.640;9.566;2023-11-19T03:02:46;3.92;;;3.63;;
36839;SDS011;24406;51.640;9.566;2023-11-19T03:07:55;2.95;;;2.75;;
36839;SDS011;24406;51.640;9.566;2023-11-19T03:12:58;4.43;;;4.03;;
36839;SDS011;24406;51.640;9.566;2023-11-19T03:18:02;2.65;;;2.45;;
36839;SDS011;24406;51.640;9.566;2023-11-19T03:23:05;3.35;;;3.05;;
36839;SDS011;24406;51.640;9.566;2023-11-19T03:28:07;3.53;;;3.28;;
36839;SDS011;24406;51.640;9.566;2023-11-19T03:33:09;2.80;;;2.60;;
36839;SDS011;24406;51.640;9.566;2023-11-19T03:38:12;4.18;;;3.78;;
36839;SDS011;24406;51.640;9.566;2023-11-19T03:43:14;3.42;;;3.20;;
36839;SDS011;24406;51.640;9.566;2023-11-19T03:48:16;3.63;;;3.25;;
36839;SDS011;24406;51.640;9.566;2023-11-19T03:53:20;3.63;;;3.33;;
36839;SDS011;24406;51.640;9.566;2023-11-19T03:58:24;3.92;;;3.63;;
36839;SDS011;24406;51.640;9.566;2023-11-19T04:03:25;3.63;;;3.33;;
36839;SDS011;24406;51.640;9.566;2023-11-19T04:08:29;3.45;;;3.25;;
36839;SDS011;24406;51.640;9.566;2023-11-19T04:13:31;3.55;;;3.00;;
36839;SDS011;24406;51.640;9.566;2023-11-19T04:18:32;4.85;;;3.95;;
36839;SDS011;24406;51.640;9.566;2023-11-19T04:23:36;4.43;;;4.03;;
36839;SDS011;24406;51.640;9.566;2023-11-19T04:28:38;4.70;;;4.30;;
36839;SDS011;24406;51.640;9.566;2023-11-19T04:33:40;5.07;;;4.60;;
36839;SDS011;24406;51.640;9.566;2023-11-19T04:38:43;4.53;;;4.07;;
36839;SDS011;24406;51.640;9.566;2023-11-19T04:43:44;5.72;;;4.93;;
36839;SDS011;24406;51.640;9.566;2023-11-19T04:48:46;5.30;;;4.07;;
36839;SDS011;24406;51.640;9.566;2023-11-19T04:53:50;4.63;;;4.22;;
36839;SDS011;24406;51.640;9.566;2023-11-19T04:58:51;6.30;;;3.65;;
36839;SDS011;24406;51.640;9.566;2023-11-19T05:03:53;3.55;;;3.25;;
36839;SDS011;24406;51.640;9.566;2023-11-19T05:08:59;3.35;;;3.05;;
36839;SDS011;24406;51.640;9.566;2023-11-19T05:14:04;3.00;;;2.80;;
36839;SDS011;24406;51.640;9.566;2023-11-19T05:19:07;3.28;;;2.92;;
36839;SDS011;24406;51.640;9.566;2023-11-19T05:24:11;4.03;;;2.78;;
36839;SDS011;24406;51.640;9.566;2023-11-19T05:29:13;2.90;;;2.70;;
36839;SDS011;24406;51.640;9.566;2023-11-19T05:34:15;3.08;;;2.35;;
36839;SDS011;24406;51.640;9.566;2023-11-19T05:39:18;2.90;;;2.58;;
36839;SDS011;24406;51.640;9.566;2023-11-19T05:44:20;3.08;;;2.78;;
36839;SDS011;24406;51.640;9.566;2023-11-19T05:49:22;2.72;;;2.53;;
36839;SDS011;24406;51.640;9.566;2023-11-19T05:54:25;2.38;;;2.17;;
36839;SDS011;24406;51.640;9.566;2023-11-19T05:59:26;2.47;;;2.28;;
36839;SDS011;24406;51.640;9.566;2023-11-19T06:04:33;4.00;;;2.38;;
36839;SDS011;24406;51.640;9.566;2023-11-19T06:09:36;5.65;;;2.53;;
36839;SDS011;24406;51.640;9.566;2023-11-19T06:14:38;4.15;;;2.47;;
36839;SDS011;24406;51.640;9.566;2023-11-19T06:19:39;3.03;;;2.72;;
36839;SDS011;24406;51.640;9.566;2023-11-19T06:24:43;6.10;;;2.50;;
36839;SDS011;24406;51.640;9.566;2023-11-19T06:29:44;5.07;;;2.67;;
36839;SDS011;24406;51.640;9.566;2023-11-19T06:34:46;3.10;;;2.63;;
36839;SDS011;24406;51.640;9.566;2023-11-19T06:39:50;6.35;;;2.42;;
36839;SDS011;24406;51.640;9.566;2023-11-19T06:44:51;4.72;;;2.42;;
36839;SDS011;24406;51.640;9.566;2023-11-19T06:49:53;3.40;;;1.98;;
36839;SDS011;24406;51.640;9.566;2023-11-19T06:54:56;6.32;;;2.80;;
36839;SDS011;24406;51.640;9.566;2023-11-19T06:59:58;9.45;;;3.85;;
36839;SDS011;24406;51.640;9.566;2023-11-19T07:05:01;4.57;;;2.65;;
36839;SDS011;24406;51.640;9.566;2023-11-19T07:10:06;6.75;;;3.13;;
36839;SDS011;24406;51.640;9.566;2023-11-19T07:15:09;4.80;;;2.78;;
36839;SDS011;24406;51.640;9.566;2023-11-19T07:20:12;8.23;;;2.90;;
36839;SDS011;24406;51.640;9.566;2023-11-19T07:25:16;7.53;;;3.15;;
36839;SDS011;24406;51.640;9.566;2023-11-19T07:30:18;12.90;;;4.28;;
36839;SDS011;24406;51.640;9.566;2023-11-19T07:35:21;9.52;;;3.47;;
36839;SDS011;24406;51.640;9.566;2023-11-19T07:40:24;17.48;;;4.38;;
36839;SDS011;24406;51.640;9.566;2023-11-19T07:45:26;14.77;;;3.90;;
36839;SDS011;24406;51.640;9.566;2023-11-19T07:50:47;11.25;;;4.10;;
36839;SDS011;24406;51.640;9.566;2023-11-19T07:55:51;15.25;;;4.10;;
36839;SDS011;24406;51.640;9.566;2023-11-19T08:00:53;16.05;;;3.67;;
36839;SDS011;24406;51.640;9.566;2023-11-19T08:05:55;11.43;;;5.95;;
36839;SDS011;24406;51.640;9.566;2023-11-19T08:10:58;21.17;;;6.15;;
36839;SDS011;24406;51.640;9.566;2023-11-19T08:16:00;22.15;;;5.40;;
36839;SDS011;24406;51.640;9.566;2023-11-19T08:21:02;24.83;;;6.30;;
36839;SDS011;24406;51.640;9.566;2023-11-19T08:26:06;17.80;;;5.13;;
36839;SDS011;24406;51.640;9.566;2023-11-19T08:31:08;23.55;;;5.70;;
36839;SDS011;24406;51.640;9.566;2023-11-19T08:49:01;21.75;;;5.68;;
36839;SDS011;24406;51.640;9.566;2023-11-19T09:01:04;16.40;;;4.35;;
36839;SDS011;24406;51.640;9.566;2023-11-19T09:06:15;24.85;;;6.20;;
36839;SDS011;24406;51.640;9.566;2023-11-19T09:17:07;20.80;;;5.65;;
36839;SDS011;24406;51.640;9.566;2023-11-19T09:34:15;29.65;;;6.13;;
36839;SDS011;24406;51.640;9.566;2023-11-19T09:51:00;17.40;;;5.40;;
36839;SDS011;24406;51.640;9.566;2023-11-19T10:02:13;15.53;;;4.93;;
36839;SDS011;24406;51.640;9.566;2023-11-19T10:07:32;24.98;;;6.10;;
36839;SDS011;24406;51.640;9.566;2023-11-19T10:12:55;19.08;;;4.75;;
36839;SDS011;24406;51.640;9.566;2023-11-19T10:18:32;17.85;;;4.40;;
36839;SDS011;24406;51.640;9.566;2023-11-19T10:29:23;27.08;;;5.53;;
36839;SDS011;24406;51.640;9.566;2023-11-19T10:34:50;21.10;;;5.90;;
36839;SDS011;24406;51.640;9.566;2023-11-19T10:40:31;22.57;;;5.83;;
36839;SDS011;24406;51.640;9.566;2023-11-19T10:45:54;21.60;;;5.57;;
36839;SDS011;24406;51.640;9.566;2023-11-19T10:51:33;22.75;;;5.60;;
36839;SDS011;24406;51.640;9.566;2023-11-19T11:02:14;22.25;;;5.88;;
36839;SDS011;24406;51.640;9.566;2023-11-19T11:07:27;26.80;;;6.15;;
36839;SDS011;24406;51.640;9.566;2023-11-19T11:18:09;14.73;;;5.03;;
36839;SDS011;24406;51.640;9.566;2023-11-19T11:23:36;16.67;;;4.25;;
36839;SDS011;24406;51.640;9.566;2023-11-19T11:29:20;22.73;;;5.30;;
36839;SDS011;24406;51.640;9.566;2023-11-19T11:40:03;16.25;;;5.80;;
36839;SDS011;24406;51.640;9.566;2023-11-19T11:45:39;15.02;;;4.28;;
36839;SDS011;24406;51.640;9.566;2023-11-19T11:50:58;16.25;;;4.30;;
36839;SDS011;24406;51.640;9.566;2023-11-19T11:56:06;23.25;;;4.97;;
36839;SDS011;24406;51.640;9.566;2023-11-19T12:02:03;14.85;;;4.45;;
36839;SDS011;24406;51.640;9.566;2023-11-19T12:07:13;17.58;;;4.20;;
36839;SDS011;24406;51.640;9.566;2023-11-19T12:12:27;22.05;;;5.13;;
36839;SDS011;24406;51.640;9.566;2023-11-19T12:48:13;20.92;;;5.43;;
36839;SDS011;24406;51.640;9.566;2023-11-19T12:59:33;28.13;;;9.27;;
36839;SDS011;24406;51.640;9.566;2023-11-19T13:05:28;33.35;;;7.38;;
36839;SDS011;24406;51.640;9.566;2023-11-19T13:35:16;26.13;;;7.20;;
36839;SDS011;24406;51.640;9.566;2023-11-19T13:40:43;24.20;;;6.60;;
36839;SDS011;24406;51.640;9.566;2023-11-19T13:45:50;22.02;;;8.05;;
36839;SDS011;24406;51.640;9.566;2023-11-19T13:57:50;27.17;;;7.97;;
36839;SDS011;24406;51.640;9.566;2023-11-19T14:03:05;22.40;;;7.15;;
36839;SDS011;24406;51.640;9.566;2023-11-19T14:08:16;24.85;;;9.30;;
36839;SDS011;24406;51.640;9.566;2023-11-19T14:13:53;30.15;;;9.80;;
36839;SDS011;24406;51.640;9.566;2023-11-19T14:19:17;20.92;;;7.15;;
36839;SDS011;24406;51.640;9.566;2023-11-19T14:24:52;25.30;;;10.60;;
36839;SDS011;24406;51.640;9.566;2023-11-19T14:29:59;21.67;;;8.13;;
36839;SDS011;24406;51.640;9.566;2023-11-19T14:35:09;16.20;;;4.25;;
36839;SDS011;24406;51.640;9.566;2023-11-19T14:40:49;15.00;;;5.13;;
36839;SDS011;24406;51.640;9.566;2023-11-19T14:51:44;17.92;;;5.70;;
36839;SDS011;24406;51.640;9.566;2023-11-19T15:03:05;18.73;;;6.45;;
36839;SDS011;24406;51.640;9.566;2023-11-19T15:08:09;19.00;;;4.13;;
36839;SDS011;24406;51.640;9.566;2023-11-19T15:13:10;24.77;;;6.25;;
36839;SDS011;24406;51.640;9.566;2023-11-19T15:23:56;22.17;;;5.50;;
36839;SDS011;24406;51.640;9.566;2023-11-19T15:34:35;22.42;;;5.47;;
36839;SDS011;24406;51.640;9.566;2023-11-19T15:39:38;17.52;;;4.45;;
36839;SDS011;24406;51.640;9.566;2023-11-19T15:44:39;22.02;;;5.18;;
36839;SDS011;24406;51.640;9.566;2023-11-19T15:49:42;16.35;;;4.70;;
36839;SDS011;24406;51.640;9.566;2023-11-19T15:54:45;20.30;;;4.78;;
36839;SDS011;24406;51.640;9.566;2023-11-19T15:59:47;23.73;;;5.25;;
36839;SDS011;24406;51.640;9.566;2023-11-19T16:04:51;20.63;;;5.68;;
36839;SDS011;24406;51.640;9.566;2023-11-19T16:09:52;22.15;;;5.53;;
36839;SDS011;24406;51.640;9.566;2023-11-19T16:14:54;17.45;;;6.95;;
36839;SDS011;24406;51.640;9.566;2023-11-19T16:19:57;24.52;;;7.20;;
36839;SDS011;24406;51.640;9.566;2023-11-19T16:24:59;18.40;;;5.70;;
36839;SDS011;24406;51.640;9.566;2023-11-19T16:30:00;17.73;;;5.40;;
36839;SDS011;24406;51.640;9.566;2023-11-19T16:35:04;13.93;;;4.60;;
36839;SDS011;24406;51.640;9.566;2023-11-19T16:40:07;14.82;;;6.00;;
36839;SDS011;24406;51.640;9.566;2023-11-19T16:45:12;15.50;;;4.05;;
36839;SDS011;24406;51.640;9.566;2023-11-19T16:50:16;15.90;;;4.22;;
36839;SDS011;24406;51.640;9.566;2023-11-19T16:55:19;18.55;;;6.22;;
36839;SDS011;24406;51.640;9.566;2023-11-19T17:00:20;19.80;;;4.85;;
36839;SDS011;24406;51.640;9.566;2023-11-19T17:05:23;17.50;;;5.28;;
36839;SDS011;24406;51.640;9.566;2023-11-19T17:10:25;14.35;;;6.35;;
36839;SDS011;24406;51.640;9.566;2023-11-19T17:15:27;13.52;;;5.10;;
36839;SDS011;24406;51.640;9.566;2023-11-19T17:20:30;22.30;;;7.80;;
36839;SDS011;24406;51.640;9.566;2023-11-19T17:25:32;14.38;;;5.43;;
36839;SDS011;24406;51.640;9.566;2023-11-19T17:30:33;18.02;;;4.45;;
36839;SDS011;24406;51.640;9.566;2023-11-19T17:35:37;9.48;;;3.20;;
36839;SDS011;24406;51.640;9.566;2023-11-19T17:40:38;12.63;;;4.40;;
36839;SDS011;24406;51.640;9.566;2023-11-19T17:45:40;13.40;;;3.33;;
36839;SDS011;24406;51.640;9.566;2023-11-19T17:50:43;16.13;;;3.10;;
36839;SDS011;24406;51.640;9.566;2023-11-19T17:55:44;8.57;;;2.50;;
36839;SDS011;24406;51.640;9.566;2023-11-19T18:00:46;12.93;;;3.30;;
36839;SDS011;24406;51.640;9.566;2023-11-19T18:05:49;9.38;;;2.38;;
36839;SDS011;24406;51.640;9.566;2023-11-19T18:10:51;12.40;;;2.90;;
36839;SDS011;24406;51.640;9.566;2023-11-19T18:15:53;8.00;;;2.70;;
36839;SDS011;24406;51.640;9.566;2023-11-19T18:20:59;9.55;;;2.97;;
36839;SDS011;24406;51.640;9.566;2023-11-19T18:26:18;8.45;;;2.80;;
36839;SDS011;24406;51.640;9.566;2023-11-19T18:31:25;10.55;;;2.78;;
36839;SDS011;24406;51.640;9.566;2023-11-19T18:37:00;14.18;;;3.95;;
36839;SDS011;24406;51.640;9.566;2023-11-19T18:42:22;9.00;;;2.45;;
36839;SDS011;24406;51.640;9.566;2023-11-19T18:53:32;10.50;;;3.78;;
36839;SDS011;24406;51.640;9.566;2023-11-19T19:09:07;11.48;;;3.30;;
36839;SDS011;24406;51.640;9.566;2023-11-19T19:14:21;9.10;;;3.58;;
36839;SDS011;24406;51.640;9.566;2023-11-19T19:19:41;11.75;;;3.83;;
36839;SDS011;24406;51.640;9.566;2023-11-19T19:24:47;8.73;;;3.83;;
36839;SDS011;24406;51.640;9.566;2023-11-19T19:29:52;13.57;;;4.63;;
36839;SDS011;24406;51.640;9.566;2023-11-19T19:35:08;11.10;;;5.03;;
36839;SDS011;24406;51.640;9.566;2023-11-19T19:46:45;23.42;;;12.90;;
36839;SDS011;24406;51.640;9.566;2023-11-19T19:51:57;42.85;;;24.90;;
36839;SDS011;24406;51.640;9.566;2023-11-19T19:57:45;29.52;;;14.88;;
36839;SDS011;24406;51.640;9.566;2023-11-19T23:26:32;4.10;;;1.65;;
36839;SDS011;24406;51.640;9.566;2023-11-19T23:31:59;4.07;;;1.20;;
36839;SDS011;24406;51.640;9.566;2023-11-19T23:42:45;7.95;;;3.15;;
36839;SDS011;24406;51.640;9.566;2023-11-19T23:48:17;4.93;;;1.38;;
36839;SDS011;24406;51.640;9.566;2023-11-19T23:54:00;2.45;;;1.10;;
36839;SDS011;24406;51.640;9.566;2023-11-19T23:59:57;4.07;;;1.70;;
